createdAt,value
2023-01-31T00:04:45.299Z,99.90
2023-01-31T00:09:47.036Z,99.80
2023-01-31T00:14:48.681Z,99.70
2023-01-31T00:19:50.358Z,99.60
2023-01-31T00:24:52.028Z,99.60
2023-01-31T00:29:53.774Z,99.20
2023-01-31T00:34:55.490Z,99.10
2023-01-31T00:39:57.160Z,98.70
2023-01-31T00:44:58.826Z,98.30
2023-01-31T00:50:00.682Z,98.30
2023-01-31T00:55:02.390Z,98.30
2023-01-31T01:00:04.853Z,98.60
2023-01-31T01:05:07.044Z,98.60
2023-01-31T01:10:09.517Z,98.40
2023-01-31T01:15:11.270Z,98.60
2023-01-31T01:20:13.082Z,98.80
2023-01-31T01:25:14.805Z,98.40
2023-01-31T01:30:16.937Z,98.70
2023-01-31T01:35:18.894Z,99.20
2023-01-31T01:40:20.921Z,99.10
2023-01-31T01:45:23.083Z,99.30
2023-01-31T01:50:33.644Z,99.60
2023-01-31T01:55:50.013Z,99.90
2023-01-31T02:00:52.370Z,99.90
2023-01-31T02:06:00.375Z,99.90
2023-01-31T02:11:10.896Z,99.90
2023-01-31T02:16:12.731Z,99.90
2023-01-31T02:21:33.569Z,99.90
2023-01-31T02:27:12.908Z,99.40
2023-01-31T02:32:23.837Z,99.30
2023-01-31T02:37:43.308Z,98.90
2023-01-31T02:42:44.940Z,99.70
2023-01-31T02:48:07.977Z,99.80
2023-01-31T02:53:41.215Z,99.90
2023-01-31T02:58:56.519Z,99.60
2023-01-31T03:04:02.097Z,99.80
2023-01-31T03:09:13.721Z,99.40
2023-01-31T03:14:24.803Z,99.00
2023-01-31T03:19:38.484Z,99.30
2023-01-31T03:24:42.048Z,99.70
2023-01-31T03:29:44.712Z,99.20
2023-01-31T03:34:47.452Z,98.90
2023-01-31T03:40:03.836Z,99.10
2023-01-31T03:45:25.750Z,99.50
2023-01-31T03:50:41.235Z,99.40
2023-01-31T03:55:45.722Z,99.40
2023-01-31T04:00:50.292Z,99.20
2023-01-31T04:05:58.630Z,99.20
2023-01-31T04:11:03.643Z,99.70
2023-01-31T04:16:05.713Z,99.90
2023-01-31T04:21:07.482Z,99.90
2023-01-31T04:26:09.169Z,99.90
2023-01-31T04:31:10.928Z,99.90
2023-01-31T04:36:12.756Z,99.90
2023-01-31T04:41:14.428Z,99.60
2023-01-31T04:46:16.138Z,99.50
2023-01-31T04:51:17.885Z,99.90
2023-01-31T04:56:19.591Z,99.10
2023-01-31T05:01:21.377Z,99.00
2023-01-31T05:06:23.114Z,99.70
2023-01-31T05:11:24.851Z,99.90
2023-01-31T05:16:26.669Z,99.90
2023-01-31T05:21:28.501Z,99.90
2023-01-31T05:26:30.216Z,99.90
2023-01-31T05:31:32.550Z,99.90
2023-01-31T05:36:34.246Z,99.90
2023-01-31T05:41:36.133Z,99.90
2023-01-31T05:46:38.538Z,99.90
2023-01-31T05:51:41.142Z,99.90
2023-01-31T05:56:42.881Z,99.90
2023-01-31T06:01:44.750Z,99.90
2023-01-31T06:06:46.466Z,99.90
2023-01-31T06:11:48.102Z,99.90
2023-01-31T06:16:50.081Z,99.80
2023-01-31T06:21:52.223Z,99.90
2023-01-31T06:26:53.875Z,99.80
2023-01-31T06:31:55.553Z,99.90
2023-01-31T06:36:59.010Z,99.70
2023-01-31T06:42:00.722Z,99.40
2023-01-31T06:47:02.404Z,99.20
2023-01-31T06:52:04.177Z,99.80
2023-01-31T06:57:06.259Z,99.90
2023-01-31T07:02:10.281Z,99.90
2023-01-31T07:07:11.992Z,99.90
2023-01-31T07:12:13.698Z,99.80
2023-01-31T07:17:15.571Z,99.90
2023-01-31T07:22:17.250Z,99.90
2023-01-31T07:27:18.989Z,99.80
2023-01-31T07:32:20.685Z,99.90
2023-01-31T07:37:22.357Z,99.90
2023-01-31T07:42:24.040Z,99.80
2023-01-31T07:47:25.688Z,99.90
2023-01-31T07:52:27.332Z,99.90
2023-01-31T07:57:32.153Z,99.90
2023-01-31T08:02:52.546Z,99.90
2023-01-31T08:08:10.325Z,99.90
2023-01-31T08:13:12.091Z,99.70
2023-01-31T08:18:13.788Z,99.50
2023-01-31T08:23:15.479Z,99.10
2023-01-31T08:28:17.176Z,99.30
2023-01-31T08:33:18.967Z,98.20
2023-01-31T08:38:21.287Z,96.30
2023-01-31T08:43:22.962Z,94.70
2023-01-31T08:48:24.667Z,93.00
2023-01-31T08:53:26.312Z,93.00
2023-01-31T08:58:28.986Z,92.30
2023-01-31T09:03:31.063Z,89.70
2023-01-31T09:08:33.251Z,84.90
2023-01-31T09:13:35.798Z,81.90
2023-01-31T09:18:39.607Z,82.50
2023-01-31T09:23:42.837Z,87.70
2023-01-31T09:28:45.458Z,90.50
2023-01-31T09:33:47.460Z,91.80
2023-01-31T09:38:53.340Z,91.70
2023-01-31T09:44:20.477Z,85.20
2023-01-31T09:49:33.158Z,78.70
2023-01-31T09:54:39.566Z,75.30
2023-01-31T10:00:02.592Z,72.00
2023-01-31T10:05:13.408Z,73.10
2023-01-31T10:10:33.765Z,71.20
2023-01-31T10:15:42.848Z,70.50
2023-01-31T10:21:08.972Z,68.00
2023-01-31T10:26:16.250Z,72.40
2023-01-31T10:31:53.168Z,71.20
2023-01-31T10:37:31.562Z,74.80
2023-01-31T10:42:39.256Z,80.40
2023-01-31T10:47:59.632Z,84.30
2023-01-31T10:53:16.438Z,86.40
2023-01-31T10:58:25.040Z,87.50
2023-01-31T11:03:26.701Z,88.50
2023-01-31T11:08:36.525Z,87.60
2023-01-31T11:13:38.881Z,85.90
2023-01-31T11:18:49.415Z,78.90
2023-01-31T11:23:55.458Z,74.00
2023-01-31T11:28:58.019Z,71.50
2023-01-31T11:34:01.905Z,69.50
2023-01-31T11:39:24.151Z,71.00
2023-01-31T11:44:25.914Z,71.70
2023-01-31T11:49:35.396Z,71.90
2023-01-31T11:54:37.382Z,74.20
2023-01-31T11:59:39.093Z,80.00
2023-01-31T12:04:42.730Z,83.00
2023-01-31T12:09:44.899Z,81.50
2023-01-31T12:14:48.202Z,82.00
2023-01-31T12:19:49.851Z,79.80
2023-01-31T12:25:38.955Z,83.90
2023-01-31T12:31:08.417Z,87.20
2023-01-31T12:36:29.054Z,90.00
2023-01-31T12:41:30.715Z,90.20
2023-01-31T12:46:41.661Z,90.70
2023-01-31T12:51:50.622Z,90.90
2023-01-31T12:57:26.318Z,90.50
2023-01-31T13:02:46.202Z,90.30
2023-01-31T13:08:07.875Z,88.20
2023-01-31T13:13:32.018Z,88.90
2023-01-31T13:18:35.835Z,90.10
2023-01-31T13:23:48.527Z,90.80
2023-01-31T13:28:57.979Z,91.10
2023-01-31T13:34:06.502Z,90.90
2023-01-31T13:39:32.303Z,90.90
2023-01-31T13:44:34.068Z,91.10
2023-01-31T13:49:41.350Z,91.30
2023-01-31T13:54:53.291Z,91.30
2023-01-31T14:00:01.894Z,91.30
2023-01-31T14:05:45.712Z,91.10
2023-01-31T14:10:51.892Z,91.00
2023-01-31T14:15:55.869Z,91.00
2023-01-31T14:20:57.557Z,90.90
2023-01-31T14:25:59.286Z,90.80
2023-01-31T14:31:12.672Z,90.80
2023-01-31T14:36:26.386Z,90.50
2023-01-31T14:41:39.291Z,90.60
2023-01-31T14:47:25.805Z,90.80
2023-01-31T14:52:28.490Z,91.20
2023-01-31T14:57:42.627Z,91.60
2023-01-31T15:03:07.330Z,91.90
2023-01-31T15:08:14.642Z,92.30
2023-01-31T15:13:38.293Z,92.80
2023-01-31T15:18:40.824Z,93.00
2023-01-31T15:23:43.183Z,93.40
2023-01-31T15:28:45.915Z,93.40
2023-01-31T15:33:53.354Z,93.00
2023-01-31T15:39:16.589Z,93.00
2023-01-31T15:44:23.696Z,93.20
2023-01-31T15:49:39.492Z,93.30
2023-01-31T15:54:56.075Z,93.30
2023-01-31T15:59:58.240Z,93.30
2023-01-31T16:05:00.344Z,93.10
2023-01-31T16:10:02.566Z,93.20
2023-01-31T16:15:07.798Z,93.60
2023-01-31T16:20:52.658Z,93.90
2023-01-31T16:26:23.109Z,94.00
2023-01-31T16:31:27.862Z,94.00
2023-01-31T16:36:33.675Z,94.00
2023-01-31T16:41:46.310Z,93.90
2023-01-31T16:46:50.065Z,93.90
2023-01-31T16:52:08.828Z,93.90
2023-01-31T16:57:37.528Z,94.00
2023-01-31T17:02:41.266Z,94.00
2023-01-31T17:07:45.589Z,94.00
2023-01-31T17:12:47.777Z,94.20
2023-01-31T17:17:49.429Z,94.10
2023-01-31T17:23:00.698Z,94.40
2023-01-31T17:28:05.844Z,94.40
2023-01-31T17:33:11.882Z,94.50
2023-01-31T17:38:13.587Z,94.60
2023-01-31T17:43:22.052Z,94.70
2023-01-31T17:48:26.819Z,95.00
2023-01-31T17:53:32.135Z,95.10
2023-01-31T17:58:36.381Z,95.30
2023-01-31T18:03:38.037Z,95.40
2023-01-31T18:08:39.782Z,95.50
2023-01-31T18:13:42.253Z,95.60
2023-01-31T18:18:44.043Z,95.60
2023-01-31T18:23:54.055Z,95.70
2023-01-31T18:28:57.494Z,95.80
2023-01-31T18:33:59.323Z,95.70
2023-01-31T18:39:01.056Z,95.40
2023-01-31T18:44:02.885Z,95.30
2023-01-31T18:49:04.595Z,95.30
2023-01-31T18:54:07.814Z,95.20
2023-01-31T18:59:09.479Z,95.20
2023-01-31T19:04:11.144Z,94.80
2023-01-31T19:09:13.788Z,94.50
2023-01-31T19:14:16.001Z,94.50
2023-01-31T19:19:17.755Z,94.70
2023-01-31T19:24:19.564Z,94.60
2023-01-31T19:29:21.287Z,94.50
2023-01-31T19:34:23.020Z,94.50
2023-01-31T19:39:24.669Z,94.70
2023-01-31T19:44:26.527Z,94.70
2023-01-31T19:49:28.196Z,94.70
2023-01-31T19:54:29.953Z,94.70
2023-01-31T19:59:33.678Z,94.70
2023-01-31T20:04:35.349Z,94.80
2023-01-31T20:09:37.101Z,94.90
2023-01-31T20:14:38.762Z,94.90
2023-01-31T20:19:41.028Z,94.90
2023-01-31T20:24:42.666Z,94.90
2023-01-31T20:29:44.388Z,94.80
2023-01-31T20:34:46.168Z,95.10
2023-01-31T20:39:47.844Z,95.10
2023-01-31T20:44:49.737Z,95.30
2023-01-31T20:49:51.411Z,95.30
2023-01-31T20:54:53.134Z,95.20
2023-01-31T20:59:54.844Z,95.10
2023-01-31T21:04:56.518Z,95.40
2023-01-31T21:09:58.235Z,95.50
2023-01-31T21:15:00.030Z,95.70
2023-01-31T21:20:01.885Z,95.90
2023-01-31T21:25:03.829Z,96.30
2023-01-31T21:30:06.270Z,96.70
2023-01-31T21:35:08.248Z,97.30
2023-01-31T21:40:10.577Z,97.70
2023-01-31T21:45:12.308Z,98.00
2023-01-31T21:50:14.012Z,98.00
2023-01-31T21:55:16.820Z,97.90
2023-01-31T22:00:19.592Z,97.70
2023-01-31T22:05:21.446Z,97.60
2023-01-31T22:10:23.358Z,97.40
2023-01-31T22:15:25.514Z,97.30
2023-01-31T22:20:27.213Z,97.10
2023-01-31T22:25:28.885Z,97.10
2023-01-31T22:30:30.783Z,97.20
2023-01-31T22:35:33.713Z,97.20
2023-01-31T22:40:39.937Z,97.20
2023-01-31T22:45:49.310Z,97.20
2023-01-31T22:50:59.155Z,97.10
2023-01-31T22:56:02.580Z,97.10
2023-01-31T23:01:12.671Z,97.00
2023-01-31T23:06:15.952Z,96.90
2023-01-31T23:11:18.346Z,96.70
2023-01-31T23:16:46.313Z,96.70
2023-01-31T23:21:49.061Z,96.50
2023-01-31T23:26:51.023Z,96.60
2023-01-31T23:31:52.810Z,96.20
2023-01-31T23:36:54.502Z,96.50
2023-01-31T23:41:56.230Z,96.40
2023-01-31T23:46:57.917Z,95.80
2023-01-31T23:51:59.685Z,96.20
2023-01-31T23:57:01.469Z,96.20
